Time;durP1;ratioP1;P1;durP2;ratioP2;P2;SDS_P1;SDS_P2;PMS_P1;PMS_P2;Temp;Humidity;BMP_temperature;BMP_pressure;BME280_temperature;BME280_humidity;BME280_pressure;Samples;Min_cycle;Max_cycle;Signal;HPM_P1;HPM_P2
2022/11/04 00:01:43;;;;;;;22.45;5.38;;;;;;;;;;5052166;28;20053;-76
2022/11/04 00:04:09;;;;;;;21.38;5.57;;;;;;;;;;5052064;28;20029;-76
2022/11/04 00:06:36;;;;;;;18.67;5.38;;;;;;;;;;5054503;28;20036;-75
2022/11/04 00:09:02;;;;;;;17.67;5.55;;;;;;;;;;5055882;28;20366;-75
2022/11/04 00:14:13;;;;;;;16.15;5.05;;;;;;;;;;5055316;28;20075;-75
2022/11/04 00:19:24;;;;;;;23.10;6.80;;;;;;;;;;5055615;28;20067;-75
2022/11/04 00:29:54;;;;;;;17.52;5.43;;;;;;;;;;5057469;28;20324;-74
2022/11/04 00:35:05;;;;;;;15.60;5.38;;;;;;;;;;5055407;28;20031;-75
2022/11/04 00:37:31;;;;;;;19.33;5.55;;;;;;;;;;5036973;28;20025;-75
2022/11/04 00:39:57;;;;;;;18.00;6.15;;;;;;;;;;5041178;28;20079;-75
2022/11/04 00:42:23;;;;;;;18.92;5.43;;;;;;;;;;5055014;28;20060;-75
2022/11/04 00:44:49;;;;;;;18.23;5.90;;;;;;;;;;5054807;28;20033;-75
2022/11/04 00:47:15;;;;;;;16.65;6.05;;;;;;;;;;5054431;28;20086;-75
2022/11/04 00:49:41;;;;;;;26.60;6.78;;;;;;;;;;5054701;28;20068;-75
2022/11/04 00:52:07;;;;;;;20.17;5.78;;;;;;;;;;5054451;28;20036;-75
2022/11/04 00:54:33;;;;;;;21.77;6.75;;;;;;;;;;5054648;28;20029;-75
2022/11/04 00:56:58;;;;;;;20.98;6.28;;;;;;;;;;5054556;28;20100;-75
2022/11/04 00:59:24;;;;;;;19.17;5.78;;;;;;;;;;5036491;28;20078;-75
2022/11/04 01:01:50;;;;;;;23.42;6.50;;;;;;;;;;5054486;28;20096;-75
2022/11/04 01:04:16;;;;;;;24.63;6.30;;;;;;;;;;5054887;28;20025;-75
2022/11/04 01:06:42;;;;;;;24.88;6.70;;;;;;;;;;5055218;28;20045;-75
2022/11/04 01:09:08;;;;;;;17.25;6.10;;;;;;;;;;5056855;28;20392;-75
2022/11/04 01:11:34;;;;;;;23.17;7.25;;;;;;;;;;5061488;28;20028;-75
2022/11/04 01:14:00;;;;;;;19.27;6.88;;;;;;;;;;5061172;28;20081;-75
2022/11/04 01:16:27;;;;;;;20.05;6.75;;;;;;;;;;5061339;28;20028;-75
2022/11/04 01:18:53;;;;;;;20.45;6.15;;;;;;;;;;5067790;28;20089;-75
2022/11/04 01:21:19;;;;;;;17.08;6.38;;;;;;;;;;5074697;28;20048;-75
2022/11/04 01:23:45;;;;;;;24.50;6.50;;;;;;;;;;5098146;22;20053;-72
2022/11/04 01:26:12;;;;;;;20.52;6.10;;;;;;;;;;5074723;28;20028;-72
2022/11/04 01:28:38;;;;;;;20.67;6.80;;;;;;;;;;5074985;28;20028;-74
2022/11/04 01:31:06;;;;;;;16.55;5.90;;;;;;;;;;5077108;28;20067;-74
2022/11/04 01:33:32;;;;;;;15.40;5.88;;;;;;;;;;5091983;28;20017;-74
2022/11/04 01:36:01;;;;;;;19.77;6.72;;;;;;;;;;5092300;28;20023;-73
2022/11/04 01:38:27;;;;;;;21.67;6.30;;;;;;;;;;5094023;28;20044;-73
2022/11/04 01:40:54;;;;;;;18.65;6.10;;;;;;;;;;5089335;28;20135;-73
2022/11/04 01:43:21;;;;;;;18.08;5.80;;;;;;;;;;5090074;28;20040;-72
2022/11/04 01:45:56;;;;;;;21.75;6.30;;;;;;;;;;5072754;28;20489;-75
2022/11/04 01:48:23;;;;;;;13.75;5.70;;;;;;;;;;5074017;28;20088;-73
2022/11/04 01:50:50;;;;;;;27.65;6.88;;;;;;;;;;5074194;28;20715;-74
2022/11/04 01:53:20;;;;;;;21.38;6.75;;;;;;;;;;5072846;28;20480;-73
2022/11/04 01:55:50;;;;;;;14.35;6.63;;;;;;;;;;5072484;28;20465;-74
2022/11/04 01:58:18;;;;;;;22.85;6.07;;;;;;;;;;5074021;28;20130;-74
2022/11/04 02:00:44;;;;;;;17.42;5.80;;;;;;;;;;5073720;28;20020;-74
2022/11/04 02:03:31;;;;;;;23.90;6.40;;;;;;;;;;5072430;28;20028;-73
2022/11/04 02:05:57;;;;;;;19.45;6.28;;;;;;;;;;5073369;28;20029;-72
2022/11/04 02:08:24;;;;;;;17.10;5.90;;;;;;;;;;5073537;28;20466;-73
2022/11/04 02:10:52;;;;;;;15.05;6.57;;;;;;;;;;5072960;28;20033;-74
2022/11/04 02:13:18;;;;;;;13.40;5.68;;;;;;;;;;5073541;28;20103;-74
2022/11/04 02:16:02;;;;;;;17.95;6.45;;;;;;;;;;5073273;28;20056;-73
2022/11/04 02:18:43;;;;;;;15.23;6.00;;;;;;;;;;5073972;28;20381;-72
2022/11/04 02:21:27;;;;;;;13.52;5.50;;;;;;;;;;5073849;28;20503;-74
2022/11/04 02:23:56;;;;;;;12.90;5.55;;;;;;;;;;5072167;28;20041;-75
2022/11/04 02:26:41;;;;;;;18.55;5.55;;;;;;;;;;5073060;28;20028;-73
2022/11/04 02:29:31;;;;;;;16.08;5.95;;;;;;;;;;5071704;28;20158;-73
2022/11/04 02:32:09;;;;;;;17.02;5.32;;;;;;;;;;5073224;28;20389;-71
2022/11/04 02:34:48;;;;;;;16.05;5.63;;;;;;;;;;5073232;28;20385;-72
2022/11/04 02:37:38;;;;;;;16.50;5.90;;;;;;;;;;5073221;28;20126;-73
2022/11/04 02:40:04;;;;;;;15.88;5.82;;;;;;;;;;5073970;28;20029;-73
2022/11/04 02:42:37;;;;;;;14.60;5.75;;;;;;;;;;5072088;28;20031;-71
2022/11/04 02:45:10;;;;;;;18.55;6.32;;;;;;;;;;5081002;28;20028;-72
2022/11/04 02:47:37;;;;;;;17.38;6.05;;;;;;;;;;5080903;28;20035;-73
2022/11/04 02:50:16;;;;;;;16.30;5.70;;;;;;;;;;5083412;28;20021;-74
2022/11/04 02:52:52;;;;;;;21.55;6.53;;;;;;;;;;5076404;28;20035;-73
2022/11/04 02:55:24;;;;;;;21.13;6.18;;;;;;;;;;5073754;28;20031;-72
2022/11/04 02:57:51;;;;;;;18.45;6.25;;;;;;;;;;5075387;28;20024;-74
2022/11/04 03:00:20;;;;;;;14.32;5.68;;;;;;;;;;5075246;28;20032;-73
2022/11/04 03:02:52;;;;;;;10.68;6.07;;;;;;;;;;5074668;28;20493;-73
2022/11/04 03:05:20;;;;;;;17.55;6.85;;;;;;;;;;5073963;28;20024;-72
2022/11/04 03:07:47;;;;;;;18.88;6.20;;;;;;;;;;5071258;28;20028;-72
2022/11/04 03:10:17;;;;;;;10.75;6.05;;;;;;;;;;5073384;28;20024;-72
2022/11/04 03:13:04;;;;;;;14.50;5.85;;;;;;;;;;5072708;28;20024;-75
2022/11/04 03:15:33;;;;;;;16.17;6.43;;;;;;;;;;5072441;28;20021;-73
2022/11/04 03:18:04;;;;;;;16.80;6.72;;;;;;;;;;5073062;28;20021;-74
2022/11/04 03:20:30;;;;;;;18.90;6.90;;;;;;;;;;5072479;28;20035;-73
2022/11/04 03:22:58;;;;;;;13.98;6.35;;;;;;;;;;5071979;28;20028;-72
2022/11/04 03:25:26;;;;;;;14.82;6.43;;;;;;;;;;5072226;28;20107;-72
2022/11/04 03:28:05;;;;;;;14.38;6.40;;;;;;;;;;5072055;28;20358;-73
2022/11/04 03:30:35;;;;;;;20.50;6.28;;;;;;;;;;5073111;28;20024;-73
2022/11/04 03:33:07;;;;;;;13.48;5.75;;;;;;;;;;5072317;28;20079;-73
2022/11/04 03:35:33;;;;;;;16.00;6.68;;;;;;;;;;5071199;28;20610;-73
2022/11/04 03:37:59;;;;;;;14.23;6.45;;;;;;;;;;5072681;28;20032;-74
2022/11/04 03:40:25;;;;;;;19.08;7.28;;;;;;;;;;5073021;28;20476;-75
2022/11/04 03:42:57;;;;;;;13.05;6.32;;;;;;;;;;5076602;28;20059;-74
2022/11/04 03:45:23;;;;;;;11.02;6.13;;;;;;;;;;5077043;28;20442;-74
2022/11/04 03:47:50;;;;;;;15.55;7.05;;;;;;;;;;5077901;28;20091;-74
2022/11/04 03:50:19;;;;;;;16.02;6.93;;;;;;;;;;5085023;28;20112;-73
2022/11/04 03:52:45;;;;;;;13.25;6.53;;;;;;;;;;5085565;28;20028;-71
2022/11/04 03:55:12;;;;;;;14.95;7.28;;;;;;;;;;5089021;28;20004;-74
2022/11/04 03:58:00;;;;;;;15.25;6.80;;;;;;;;;;5094289;28;20039;-73
2022/11/04 04:00:28;;;;;;;11.88;7.00;;;;;;;;;;5082785;28;20025;-73
2022/11/04 04:02:59;;;;;;;16.05;7.28;;;;;;;;;;5076942;28;20100;-74
2022/11/04 04:05:45;;;;;;;14.48;6.90;;;;;;;;;;5085410;28;20025;-73
2022/11/04 04:08:19;;;;;;;15.43;7.50;;;;;;;;;;5077783;28;20043;-74
2022/11/04 04:11:08;;;;;;;21.00;7.07;;;;;;;;;;5079897;28;20021;-73
2022/11/04 04:13:37;;;;;;;16.50;8.25;;;;;;;;;;5046571;28;20054;-72
2022/11/04 04:16:09;;;;;;;14.88;7.82;;;;;;;;;;5075968;28;20103;-74
2022/11/04 04:19:01;;;;;;;13.43;6.85;;;;;;;;;;5076020;28;20024;-74
2022/11/04 04:21:29;;;;;;;16.08;7.50;;;;;;;;;;5068000;28;20105;-73
2022/11/04 04:29:28;;;;;;;11.65;6.53;;;;;;;;;;5075951;28;20500;-72
2022/11/04 04:31:56;;;;;;;14.45;6.25;;;;;;;;;;5075442;28;20031;-74
2022/11/04 04:34:23;;;;;;;12.80;5.80;;;;;;;;;;5075583;28;20024;-71
2022/11/04 04:36:55;;;;;;;10.38;4.97;;;;;;;;;;5075672;28;20017;-74
2022/11/04 04:45:01;;;;;;;;;;;;;;;;;;5076413;28;20035;-74
2022/11/04 04:47:29;;;;;;;8.40;4.13;;;;;;;;;;5075816;28;19908;-73
2022/11/04 04:49:57;;;;;;;6.07;3.50;;;;;;;;;;5075600;28;20028;-72
2022/11/04 04:52:25;;;;;;;10.32;3.80;;;;;;;;;;5075554;28;20124;-72
2022/11/04 04:54:51;;;;;;;5.68;3.20;;;;;;;;;;5079978;28;20024;-75
2022/11/04 04:57:17;;;;;;;6.03;3.15;;;;;;;;;;5075827;28;20036;-73
2022/11/04 04:59:43;;;;;;;6.38;3.03;;;;;;;;;;5086460;28;20025;-73
2022/11/04 05:02:09;;;;;;;8.15;2.70;;;;;;;;;;5086293;28;20052;-73
2022/11/04 05:04:35;;;;;;;4.13;2.40;;;;;;;;;;5086251;28;20066;-75
2022/11/04 05:07:01;;;;;;;6.75;2.42;;;;;;;;;;5075405;28;20473;-73
2022/11/04 05:09:27;;;;;;;6.63;2.45;;;;;;;;;;5075020;28;20029;-74
2022/11/04 05:11:53;;;;;;;3.35;2.05;;;;;;;;;;5075179;28;20035;-72
2022/11/04 05:14:19;;;;;;;4.57;2.33;;;;;;;;;;5075129;28;20587;-71
2022/11/04 05:16:45;;;;;;;6.68;2.20;;;;;;;;;;5074958;28;20024;-72
2022/11/04 05:19:11;;;;;;;5.82;2.25;;;;;;;;;;5078721;28;20069;-72
2022/11/04 05:21:37;;;;;;;4.90;2.17;;;;;;;;;;5081384;28;20090;-73
2022/11/04 05:24:03;;;;;;;4.63;2.22;;;;;;;;;;5074840;28;20533;-72
2022/11/04 05:26:29;;;;;;;8.40;2.88;;;;;;;;;;5074738;28;20457;-72
2022/11/04 05:28:55;;;;;;;4.10;2.10;;;;;;;;;;5074726;28;20036;-74
2022/11/04 05:31:21;;;;;;;7.80;2.80;;;;;;;;;;5075369;28;20028;-72
2022/11/04 05:33:47;;;;;;;4.32;2.22;;;;;;;;;;5075203;28;20048;-73
2022/11/04 05:36:14;;;;;;;4.78;2.20;;;;;;;;;;5074276;28;20100;-74
2022/11/04 05:38:40;;;;;;;9.85;2.30;;;;;;;;;;5074886;28;20028;-73
2022/11/04 05:41:06;;;;;;;7.85;2.53;;;;;;;;;;5074666;28;20036;-72
2022/11/04 05:43:33;;;;;;;5.82;2.50;;;;;;;;;;5074785;28;20461;-74
2022/11/04 05:45:59;;;;;;;3.03;2.05;;;;;;;;;;5074329;28;20103;-74
2022/11/04 05:48:25;;;;;;;5.40;2.40;;;;;;;;;;5074600;28;20031;-75
2022/11/04 05:50:51;;;;;;;4.40;2.25;;;;;;;;;;5076465;28;20115;-74
2022/11/04 05:53:17;;;;;;;4.72;2.20;;;;;;;;;;5080649;28;20049;-72
2022/11/04 05:55:43;;;;;;;4.32;2.40;;;;;;;;;;5083747;28;20039;-74
2022/11/04 05:58:09;;;;;;;3.45;2.35;;;;;;;;;;5079392;28;20029;-72
2022/11/04 06:00:35;;;;;;;3.55;2.47;;;;;;;;;;5074669;28;20032;-73
2022/11/04 06:03:01;;;;;;;5.70;2.97;;;;;;;;;;5073590;28;20036;-73
2022/11/04 06:05:28;;;;;;;8.23;3.13;;;;;;;;;;5074120;28;20021;-73
2022/11/04 06:07:54;;;;;;;4.07;2.38;;;;;;;;;;5082906;28;20480;-73
2022/11/04 06:10:20;;;;;;;5.65;3.13;;;;;;;;;;5093434;28;20063;-72
2022/11/04 06:12:46;;;;;;;4.60;2.90;;;;;;;;;;5093143;28;20032;-73
2022/11/04 06:15:12;;;;;;;6.22;3.50;;;;;;;;;;5091298;28;20039;-72
2022/11/04 06:17:38;;;;;;;8.05;3.60;;;;;;;;;;5089381;28;20109;-72
2022/11/04 06:20:05;;;;;;;6.35;3.53;;;;;;;;;;5077377;28;20028;-72
2022/11/04 06:22:32;;;;;;;6.18;3.30;;;;;;;;;;5074579;28;20127;-74
2022/11/04 06:24:58;;;;;;;7.28;3.47;;;;;;;;;;5073569;28;20060;-73
2022/11/04 06:27:24;;;;;;;4.97;3.70;;;;;;;;;;5072194;28;20028;-74
2022/11/04 06:29:51;;;;;;;7.88;3.80;;;;;;;;;;5073675;28;20030;-73
2022/11/04 06:32:18;;;;;;;6.35;3.58;;;;;;;;;;5073780;28;20017;-73
2022/11/04 06:34:44;;;;;;;7.43;3.22;;;;;;;;;;5073752;28;20076;-75
2022/11/04 06:37:10;;;;;;;6.25;4.00;;;;;;;;;;5079888;28;20032;-75
2022/11/04 06:39:37;;;;;;;10.57;4.35;;;;;;;;;;5076157;28;20020;-72
2022/11/04 06:42:03;;;;;;;11.13;4.32;;;;;;;;;;5073826;28;20100;-73
2022/11/04 06:44:29;;;;;;;11.85;4.35;;;;;;;;;;5073661;28;20025;-72
2022/11/04 06:46:55;;;;;;;7.22;3.92;;;;;;;;;;5073912;28;20538;-72
2022/11/04 06:49:22;;;;;;;12.38;4.38;;;;;;;;;;5073169;28;20048;-73
2022/11/04 06:51:48;;;;;;;6.57;4.43;;;;;;;;;;5073444;28;20017;-73
2022/11/04 06:54:15;;;;;;;9.88;5.22;;;;;;;;;;5073620;28;20453;-77
2022/11/04 06:56:41;;;;;;;15.50;5.82;;;;;;;;;;5074154;28;20389;-72
2022/11/04 06:59:07;;;;;;;7.13;4.60;;;;;;;;;;5075586;28;20425;-74
2022/11/04 07:01:35;;;;;;;8.63;4.70;;;;;;;;;;5077190;28;20063;-72
2022/11/04 07:04:01;;;;;;;9.60;5.10;;;;;;;;;;5079498;28;20025;-73
2022/11/04 07:06:28;;;;;;;8.70;5.03;;;;;;;;;;5076449;28;20080;-74
2022/11/04 07:08:55;;;;;;;9.15;5.13;;;;;;;;;;5076731;28;20469;-73
2022/11/04 07:11:22;;;;;;;9.57;5.45;;;;;;;;;;5079056;28;20056;-74
2022/11/04 07:13:48;;;;;;;9.80;5.35;;;;;;;;;;5073932;28;20017;-72
2022/11/04 07:16:14;;;;;;;15.27;5.07;;;;;;;;;;5072313;28;20028;-73
2022/11/04 07:18:41;;;;;;;11.02;5.90;;;;;;;;;;5073956;28;20353;-73
2022/11/04 07:21:07;;;;;;;9.70;5.60;;;;;;;;;;5073448;28;20042;-73
2022/11/04 07:23:33;;;;;;;9.15;5.88;;;;;;;;;;5089816;22;20512;-74
2022/11/04 07:26:03;;;;;;;9.52;5.55;;;;;;;;;;5035618;28;20032;-74
2022/11/04 07:28:29;;;;;;;13.77;6.28;;;;;;;;;;5052156;28;20044;-75
2022/11/04 07:30:56;;;;;;;9.70;6.10;;;;;;;;;;5052625;28;20055;-75
2022/11/04 07:33:22;;;;;;;9.63;6.82;;;;;;;;;;5052301;28;20029;-74
2022/11/04 07:35:48;;;;;;;10.68;6.75;;;;;;;;;;5035369;28;20031;-76
2022/11/04 07:38:14;;;;;;;10.35;5.72;;;;;;;;;;5051934;28;20056;-74
2022/11/04 07:40:40;;;;;;;9.77;5.88;;;;;;;;;;5034118;28;20186;-74
2022/11/04 07:43:06;;;;;;;12.80;6.95;;;;;;;;;;5051823;28;20040;-74
2022/11/04 07:45:32;;;;;;;8.57;6.07;;;;;;;;;;5052099;28;20025;-74
2022/11/04 07:47:58;;;;;;;9.93;6.40;;;;;;;;;;5052071;28;20539;-74
2022/11/04 07:50:24;;;;;;;10.98;6.43;;;;;;;;;;5051938;28;20033;-74
2022/11/04 07:52:50;;;;;;;13.15;6.47;;;;;;;;;;5052456;28;20025;-74
2022/11/04 07:55:17;;;;;;;8.88;5.85;;;;;;;;;;5053735;28;20496;-73
2022/11/04 07:57:43;;;;;;;9.68;6.38;;;;;;;;;;5053021;28;20032;-75
2022/11/04 08:00:10;;;;;;;7.75;5.93;;;;;;;;;;5061475;28;20402;-75
2022/11/04 08:02:36;;;;;;;12.43;6.32;;;;;;;;;;5053446;28;20029;-74
2022/11/04 08:05:05;;;;;;;12.13;6.50;;;;;;;;;;5052768;28;20021;-75
2022/11/04 08:07:31;;;;;;;9.70;6.40;;;;;;;;;;5034763;28;20067;-75
2022/11/04 08:09:57;;;;;;;12.45;7.00;;;;;;;;;;5053663;28;20393;-75
2022/11/04 08:12:23;;;;;;;15.55;6.85;;;;;;;;;;5060809;28;20018;-75
2022/11/04 08:14:49;;;;;;;8.80;6.90;;;;;;;;;;5059088;28;20025;-74
2022/11/04 08:17:15;;;;;;;13.32;7.13;;;;;;;;;;5036788;28;20413;-74
2022/11/04 08:19:41;;;;;;;10.63;6.88;;;;;;;;;;5054354;28;20028;-75
2022/11/04 08:22:07;;;;;;;8.82;6.38;;;;;;;;;;5054461;28;20536;-75
2022/11/04 08:24:34;;;;;;;13.95;7.35;;;;;;;;;;5053879;28;20025;-74
2022/11/04 08:27:00;;;;;;;14.40;8.02;;;;;;;;;;5057167;28;20420;-75
2022/11/04 08:29:26;;;;;;;14.18;6.85;;;;;;;;;;5058774;28;20120;-74
2022/11/04 08:31:52;;;;;;;14.38;8.35;;;;;;;;;;5059455;28;20032;-74
2022/11/04 08:34:17;;;;;;;13.68;7.65;;;;;;;;;;5038657;28;20045;-74
2022/11/04 08:36:44;;;;;;;14.70;6.68;;;;;;;;;;5056499;28;20017;-73
2022/11/04 08:39:11;;;;;;;10.15;6.03;;;;;;;;;;5057868;28;20059;-74
2022/11/04 08:41:39;;;;;;;11.10;6.20;;;;;;;;;;5059166;28;20096;-74
2022/11/04 08:44:06;;;;;;;9.77;6.35;;;;;;;;;;5074386;28;20017;-74
2022/11/04 08:46:34;;;;;;;9.82;6.25;;;;;;;;;;5077844;28;20013;-74
2022/11/04 08:48:59;;;;;;;10.18;5.63;;;;;;;;;;5077341;28;20051;-73
2022/11/04 08:51:26;;;;;;;13.95;6.90;;;;;;;;;;5076710;28;20034;-74
2022/11/04 08:53:52;;;;;;;9.65;7.03;;;;;;;;;;5075226;28;20025;-74
2022/11/04 08:56:19;;;;;;;10.65;6.53;;;;;;;;;;5077832;28;20035;-75
2022/11/04 08:58:45;;;;;;;12.13;6.85;;;;;;;;;;5078421;28;20107;-75
2022/11/04 09:01:11;;;;;;;8.82;6.25;;;;;;;;;;5078386;28;20036;-74
2022/11/04 09:03:38;;;;;;;12.95;7.47;;;;;;;;;;5077316;28;20063;-74
2022/11/04 09:06:05;;;;;;;10.40;6.53;;;;;;;;;;5077752;28;20079;-74
2022/11/04 09:08:31;;;;;;;12.52;7.15;;;;;;;;;;5074895;28;20088;-75
2022/11/04 09:10:57;;;;;;;10.75;6.70;;;;;;;;;;5078261;28;20040;-75
2022/11/04 09:13:23;;;;;;;11.52;6.40;;;;;;;;;;5070599;28;20044;-73
2022/11/04 09:15:49;;;;;;;14.32;7.35;;;;;;;;;;5058694;28;20102;-73
2022/11/04 09:18:15;;;;;;;11.07;7.43;;;;;;;;;;5055346;28;20079;-73
2022/11/04 09:20:41;;;;;;;11.57;5.95;;;;;;;;;;5056154;28;20029;-74
2022/11/04 09:23:08;;;;;;;10.20;6.57;;;;;;;;;;5055702;28;20025;-74
2022/11/04 09:25:34;;;;;;;14.63;6.18;;;;;;;;;;5054838;28;20040;-75
2022/11/04 09:28:00;;;;;;;10.85;6.65;;;;;;;;;;5054573;28;20036;-74
2022/11/04 09:30:27;;;;;;;11.07;6.10;;;;;;;;;;5056332;28;20021;-74
2022/11/04 09:32:53;;;;;;;15.60;6.28;;;;;;;;;;5054653;28;20103;-74
2022/11/04 09:35:19;;;;;;;9.65;5.60;;;;;;;;;;5037065;28;20385;-74
2022/11/04 09:37:45;;;;;;;10.00;5.50;;;;;;;;;;5055715;28;20032;-75
2022/11/04 09:40:16;;;;;;;9.50;5.75;;;;;;;;;;5036595;28;20114;-75
2022/11/04 09:42:54;;;;;;;7.15;4.78;;;;;;;;;;5056616;28;20028;-75
2022/11/04 09:45:22;;;;;;;6.63;4.43;;;;;;;;;;5054702;28;20025;-75
2022/11/04 09:47:49;;;;;;;6.10;3.92;;;;;;;;;;5037081;28;20029;-75
2022/11/04 09:50:20;;;;;;;11.50;4.07;;;;;;;;;;5054369;28;20025;-74
2022/11/04 09:52:50;;;;;;;8.77;3.50;;;;;;;;;;5056485;28;20025;-74
2022/11/04 09:55:21;;;;;;;5.80;3.42;;;;;;;;;;5053877;28;20549;-74
2022/11/04 09:57:51;;;;;;;8.70;3.22;;;;;;;;;;5053806;28;20108;-75
2022/11/04 10:00:17;;;;;;;7.05;3.03;;;;;;;;;;5054080;28;20433;-75
2022/11/04 10:02:53;;;;;;;5.65;2.45;;;;;;;;;;5054052;28;20055;-75
2022/11/04 10:05:34;;;;;;;5.60;2.25;;;;;;;;;;5053535;28;20478;-74
2022/11/04 10:08:18;;;;;;;7.07;2.67;;;;;;;;;;5036236;28;20029;-74
2022/11/04 10:10:53;;;;;;;4.97;1.90;;;;;;;;;;5054404;28;20040;-74
2022/11/04 10:13:30;;;;;;;5.10;2.25;;;;;;;;;;5053466;28;20028;-74
2022/11/04 10:16:03;;;;;;;7.50;2.00;;;;;;;;;;5059877;28;20072;-75
2022/11/04 10:18:38;;;;;;;6.05;2.05;;;;;;;;;;5059984;28;20039;-75
2022/11/04 10:21:10;;;;;;;5.32;2.17;;;;;;;;;;5055187;28;20025;-74
2022/11/04 10:23:40;;;;;;;5.03;2.58;;;;;;;;;;5053218;28;20083;-74
2022/11/04 10:26:13;;;;;;;4.22;1.70;;;;;;;;;;5053174;28;20033;-74
2022/11/04 10:28:43;;;;;;;7.97;2.30;;;;;;;;;;5055601;28;20032;-75
2022/11/04 10:31:12;;;;;;;7.53;1.40;;;;;;;;;;5057814;28;20067;-74
2022/11/04 10:33:40;;;;;;;3.05;1.25;;;;;;;;;;5061234;28;20017;-75
2022/11/04 10:36:08;;;;;;;11.20;2.10;;;;;;;;;;5071554;28;20032;-75
2022/11/04 10:38:44;;;;;;;4.90;1.67;;;;;;;;;;5077575;28;20039;-75
2022/11/04 10:41:20;;;;;;;4.50;1.42;;;;;;;;;;5055350;28;20547;-74
2022/11/04 10:43:47;;;;;;;6.05;1.38;;;;;;;;;;5067722;28;20029;-73
2022/11/04 10:46:32;;;;;;;4.53;1.25;;;;;;;;;;5053199;28;20025;-74
2022/11/04 10:49:04;;;;;;;5.82;1.30;;;;;;;;;;5053585;28;20478;-75
2022/11/04 10:51:30;;;;;;;4.15;1.35;;;;;;;;;;5054978;28;20394;-77
2022/11/04 10:53:57;;;;;;;4.68;1.42;;;;;;;;;;5052817;28;20064;-75
2022/11/04 10:56:26;;;;;;;3.13;0.95;;;;;;;;;;5053487;28;20025;-74
2022/11/04 10:58:53;;;;;;;4.40;1.00;;;;;;;;;;5053409;28;20108;-74
2022/11/04 11:01:24;;;;;;;7.35;1.27;;;;;;;;;;5067211;28;20036;-74
2022/11/04 11:03:50;;;;;;;5.30;1.00;;;;;;;;;;5053297;28;20068;-75
2022/11/04 11:06:22;;;;;;;9.90;1.50;;;;;;;;;;5053659;28;20505;-75
2022/11/04 11:08:48;;;;;;;4.60;1.00;;;;;;;;;;5054006;28;20025;-75
2022/11/04 11:11:14;;;;;;;4.93;1.25;;;;;;;;;;5053644;28;20025;-74
2022/11/04 11:13:42;;;;;;;6.60;1.05;;;;;;;;;;5054041;28;20020;-76
2022/11/04 11:16:19;;;;;;;3.03;0.80;;;;;;;;;;5052921;28;20422;-75
2022/11/04 11:19:05;;;;;;;3.63;1.10;;;;;;;;;;5053840;28;20031;-75
2022/11/04 11:21:42;;;;;;;4.15;1.00;;;;;;;;;;5053287;28;20097;-74
2022/11/04 11:24:15;;;;;;;5.72;1.33;;;;;;;;;;5052194;28;20071;-75
2022/11/04 11:26:47;;;;;;;5.00;1.13;;;;;;;;;;5051933;28;20022;-75
2022/11/04 11:29:16;;;;;;;7.70;1.00;;;;;;;;;;5051869;28;20032;-75
2022/11/04 11:31:42;;;;;;;7.00;1.17;;;;;;;;;;5052094;28;20036;-75
2022/11/04 11:34:15;;;;;;;5.93;1.25;;;;;;;;;;5052309;28;20021;-74
2022/11/04 11:36:43;;;;;;;2.85;0.90;;;;;;;;;;5051823;28;20024;-73
2022/11/04 11:39:15;;;;;;;6.78;1.25;;;;;;;;;;5034575;28;20190;-75
2022/11/04 11:42:08;;;;;;;6.93;1.70;;;;;;;;;;5051904;28;20024;-74
2022/11/04 11:44:43;;;;;;;6.13;1.33;;;;;;;;;;5048634;28;20036;-75
2022/11/04 11:47:37;;;;;;;4.30;1.45;;;;;;;;;;5061747;28;20027;-75
2022/11/04 11:50:34;;;;;;;5.40;1.20;;;;;;;;;;5053121;28;20041;-74
2022/11/04 11:53:15;;;;;;;4.90;0.90;;;;;;;;;;5053853;28;20017;-74
2022/11/04 11:55:49;;;;;;;7.22;1.40;;;;;;;;;;5052617;28;20044;-75
2022/11/04 11:58:34;;;;;;;8.88;1.85;;;;;;;;;;5051701;28;20074;-74
2022/11/04 12:01:06;;;;;;;7.85;1.63;;;;;;;;;;5051643;28;20025;-76
2022/11/04 12:03:35;;;;;;;5.28;0.90;;;;;;;;;;5056072;28;20040;-75
2022/11/04 12:06:20;;;;;;;6.68;1.10;;;;;;;;;;5055815;28;20493;-75
2022/11/04 12:08:55;;;;;;;8.30;1.20;;;;;;;;;;5055793;28;20362;-75
2022/11/04 12:11:32;;;;;;;8.43;1.30;;;;;;;;;;5056020;28;20474;-75
2022/11/04 12:14:05;;;;;;;5.38;1.20;;;;;;;;;;5038152;28;20032;-74
2022/11/04 12:16:43;;;;;;;14.48;5.32;;;;;;;;;;5055373;28;20102;-75
2022/11/04 12:19:15;;;;;;;8.82;1.23;;;;;;;;;;5055255;28;20466;-75
2022/11/04 12:22:08;;;;;;;5.35;1.55;;;;;;;;;;5056145;28;20561;-76
2022/11/04 12:24:49;;;;;;;10.25;2.38;;;;;;;;;;5055779;28;20076;-76
2022/11/04 12:27:39;;;;;;;9.35;1.40;;;;;;;;;;5060147;28;20112;-77
2022/11/04 12:30:16;;;;;;;4.63;1.20;;;;;;;;;;5038516;28;20021;-76
2022/11/04 12:32:48;;;;;;;5.30;1.38;;;;;;;;;;5056029;28;20482;-74
2022/11/04 12:35:29;;;;;;;6.28;1.33;;;;;;;;;;5040838;28;20029;-75
2022/11/04 12:38:13;;;;;;;7.20;1.25;;;;;;;;;;5055015;28;20029;-75
2022/11/04 12:40:57;;;;;;;7.18;1.52;;;;;;;;;;5057493;28;20025;-76
2022/11/04 12:43:43;;;;;;;10.40;2.33;;;;;;;;;;5058965;28;20025;-74
2022/11/04 12:46:27;;;;;;;8.52;1.90;;;;;;;;;;5054894;28;20017;-74
2022/11/04 12:48:59;;;;;;;8.23;1.70;;;;;;;;;;5054679;28;20104;-75
2022/11/04 12:51:25;;;;;;;6.25;1.33;;;;;;;;;;5054766;28;20032;-75
2022/11/04 12:54:13;;;;;;;9.88;1.73;;;;;;;;;;5054780;28;20033;-75
2022/11/04 12:56:40;;;;;;;11.27;1.85;;;;;;;;;;5064464;28;20067;-76
2022/11/04 12:59:07;;;;;;;8.93;1.63;;;;;;;;;;5043135;28;20025;-75
2022/11/04 13:01:36;;;;;;;9.45;1.27;;;;;;;;;;5060827;28;20044;-75
2022/11/04 13:04:22;;;;;;;10.15;1.50;;;;;;;;;;5068421;28;20067;-76
2022/11/04 13:06:59;;;;;;;5.20;1.20;;;;;;;;;;5054539;28;20041;-76
2022/11/04 13:09:32;;;;;;;6.95;1.50;;;;;;;;;;5054219;28;20482;-75
2022/11/04 13:12:02;;;;;;;11.07;2.13;;;;;;;;;;5055364;28;20470;-75
2022/11/04 13:14:44;;;;;;;8.23;1.73;;;;;;;;;;5035654;28;20028;-76
2022/11/04 13:17:13;;;;;;;7.00;1.23;;;;;;;;;;5038848;28;20032;-76
2022/11/04 13:19:45;;;;;;;9.20;1.70;;;;;;;;;;5056277;28;20060;-75
2022/11/04 13:22:31;;;;;;;7.80;1.25;;;;;;;;;;5055424;28;20030;-75
2022/11/04 13:25:06;;;;;;;7.75;1.70;;;;;;;;;;5094196;22;20068;-73
2022/11/04 13:27:37;;;;;;;9.43;1.48;;;;;;;;;;5086157;28;20039;-74
2022/11/04 13:30:05;;;;;;;11.23;2.00;;;;;;;;;;5083848;28;20028;-72
2022/11/04 13:32:40;;;;;;;8.30;2.17;;;;;;;;;;5084230;28;20630;-73
2022/11/04 13:35:16;;;;;;;20.88;7.18;;;;;;;;;;5090962;28;20078;-72
2022/11/04 13:37:45;;;;;;;9.20;2.92;;;;;;;;;;5087325;28;20103;-73
2022/11/04 13:40:17;;;;;;;9.27;1.92;;;;;;;;;;5075191;28;20067;-71
2022/11/04 13:43:37;;;;;;;7.88;1.38;;;;;;;;;;5074054;28;20037;-72
2022/11/04 13:45:57;;;;;;;10.43;1.75;;;;;;;;;;5075810;28;20071;-73
2022/11/04 13:48:25;;;;;;;11.30;1.67;;;;;;;;;;5076075;28;20036;-73
2022/11/04 13:50:59;;;;;;;7.78;1.60;;;;;;;;;;5073778;28;20376;-72
2022/11/04 13:53:45;;;;;;;13.63;2.13;;;;;;;;;;5075727;28;20425;-74
2022/11/04 13:56:30;;;;;;;11.90;2.17;;;;;;;;;;5074647;28;20211;-72
2022/11/04 13:58:58;;;;;;;9.80;1.80;;;;;;;;;;5075247;28;20020;-74
2022/11/04 14:01:24;;;;;;;6.45;1.50;;;;;;;;;;5075524;28;20103;-75
2022/11/04 14:03:52;;;;;;;6.45;1.55;;;;;;;;;;5074663;28;20063;-73
2022/11/04 14:06:38;;;;;;;9.73;1.30;;;;;;;;;;5077477;28;20489;-73
2022/11/04 14:09:23;;;;;;;9.10;1.80;;;;;;;;;;5085492;28;20059;-73
2022/11/04 14:12:07;;;;;;;8.25;1.73;;;;;;;;;;5092387;28;20078;-74
2022/11/04 14:14:34;;;;;;;13.05;1.70;;;;;;;;;;5093898;28;20049;-75
2022/11/04 14:17:03;;;;;;;8.20;1.30;;;;;;;;;;5094283;28;20046;-74
2022/11/04 14:19:48;;;;;;;11.45;1.85;;;;;;;;;;5087809;28;20044;-73
2022/11/04 14:22:15;;;;;;;11.45;2.03;;;;;;;;;;5075791;28;20040;-73
2022/11/04 14:24:41;;;;;;;11.38;1.70;;;;;;;;;;5074683;28;20048;-74
2022/11/04 14:27:23;;;;;;;10.77;2.78;;;;;;;;;;5075861;28;20025;-72
2022/11/04 14:29:51;;;;;;;9.20;2.97;;;;;;;;;;5075685;28;20086;-72
2022/11/04 14:32:20;;;;;;;17.02;5.45;;;;;;;;;;5075908;28;20028;-73
2022/11/04 14:34:46;;;;;;;17.67;5.38;;;;;;;;;;5074814;28;20029;-71
2022/11/04 14:37:14;;;;;;;12.20;5.53;;;;;;;;;;5075005;28;20016;-73
2022/11/04 14:39:41;;;;;;;9.05;2.47;;;;;;;;;;5074938;28;20028;-74
2022/11/04 14:42:10;;;;;;;9.50;2.00;;;;;;;;;;5074874;28;20020;-72
2022/11/04 14:44:38;;;;;;;9.02;2.60;;;;;;;;;;5073377;28;20482;-73
2022/11/04 14:47:24;;;;;;;11.25;3.47;;;;;;;;;;5073540;28;20538;-74
2022/11/04 14:49:55;;;;;;;8.13;2.03;;;;;;;;;;5073790;28;20032;-72
2022/11/04 14:52:42;;;;;;;9.05;2.70;;;;;;;;;;5073882;28;20089;-73
2022/11/04 14:55:13;;;;;;;7.50;2.00;;;;;;;;;;5067775;28;20033;-74
2022/11/04 14:57:49;;;;;;;6.32;1.80;;;;;;;;;;5074440;28;20035;-73
2022/11/04 15:00:20;;;;;;;16.67;2.20;;;;;;;;;;5073878;28;20024;-72
2022/11/04 15:02:47;;;;;;;8.75;2.30;;;;;;;;;;5074459;28;20422;-73
2022/11/04 15:05:24;;;;;;;12.23;2.80;;;;;;;;;;5074097;28;20035;-72
2022/11/04 15:07:50;;;;;;;6.75;2.03;;;;;;;;;;5074701;28;20424;-74
2022/11/04 15:10:19;;;;;;;14.52;2.40;;;;;;;;;;5077655;28;20028;-72
2022/11/04 15:12:53;;;;;;;16.38;4.35;;;;;;;;;;5082882;28;20049;-71
2022/11/04 15:15:28;;;;;;;11.50;3.00;;;;;;;;;;5082545;28;20104;-74
2022/11/04 15:17:54;;;;;;;;;;;;;;;;;;5076307;28;20035;-74
2022/11/04 15:20:24;;;;;;;11.20;3.67;;;;;;;;;;5074512;28;19904;-73
2022/11/04 15:22:51;;;;;;;10.93;2.70;;;;;;;;;;5074924;28;20024;-73